Time;durP1;ratioP1;P1;durP2;ratioP2;P2;SDS_P1;SDS_P2;PMS_P1;PMS_P2;Temp;Humidity;BMP_temperature;BMP_pressure;BME280_temperature;BME280_humidity;BME280_pressure;Samples;Min_cycle;Max_cycle;Signal;HPM_P1;HPM_P2
2021/11/07 00:00:07;;;;;;;12.82;7.00;;;;;;;;;;355712;147;857623;-56
2021/11/07 00:05:35;;;;;;;11.90;7.05;;;;;;;;;;353871;150;857846;-57
2021/11/07 00:06:38;;;;;;;11.77;6.87;;;;;;;;;;352383;150;866629;-55
2021/11/07 00:10:01;;;;;;;13.52;7.63;;;;;;;;;;352673;150;865199;-55
2021/11/07 00:10:56;;;;;;;11.80;7.12;;;;;;;;;;351314;149;865127;-55
2021/11/07 00:11:57;;;;;;;11.09;6.17;;;;;;;;;;353527;149;857761;-55
2021/11/07 00:13:10;;;;;;;16.03;7.13;;;;;;;;;;353062;150;857825;-56
2021/11/07 00:14:02;;;;;;;13.06;6.93;;;;;;;5.62;93.42;147110.59;350285;150;866840;-55
2021/11/07 00:15:05;;;;;;;11.70;6.42;;;;;;;;;;352946;149;857384;-55
2021/11/07 00:16:14;;;;;;;14.60;6.84;;;;;;;;;;354826;150;866549;-56
2021/11/07 00:17:10;;;;;;;14.19;6.46;;;;;;;;;;352650;149;857375;-55
2021/11/07 00:18:16;;;;;;;11.61;6.76;;;;;;;;;;353135;149;859344;-56
2021/11/07 00:20:38;;;;;;;13.60;6.61;;;;;;;;;;355605;150;867632;-57
2021/11/07 00:21:48;;;;;;;11.69;6.36;;;;;;;;;;352989;150;857935;-56
2021/11/07 00:24:03;;;;;;;11.60;6.96;;;;;;;;;;355276;149;859066;-56
2021/11/07 00:25:14;;;;;;;13.11;6.68;;;;;;;;;;351325;149;865109;-58
2021/11/07 00:27:19;;;;;;;11.92;7.16;;;;;;;;;;347399;154;858851;-55
2021/11/07 00:28:57;;;;;;;13.09;7.03;;;;;;;;;;341905;153;865128;-55
2021/11/07 00:29:22;;;;;;;12.12;7.24;;;;;;;;;;335778;156;859536;-55
2021/11/07 00:30:34;;;;;;;13.21;6.96;;;;;;;;;;345954;154;857282;-55
2021/11/07 00:33:10;;;;;;;;;;;;;;;;;;344233;154;858299;-55
2021/11/07 00:36:37;;;;;;;14.41;7.03;;;;;;;;;;345653;152;857585;-56
2021/11/07 00:37:40;;;;;;;11.67;6.83;;;;;;;;;;355720;150;865031;-56
2021/11/07 00:38:56;;;;;;;11.44;6.58;;;;;;;;;;352071;150;859591;-57
2021/11/07 00:41:57;;;;;;;14.36;6.76;;;;;;;;;;344660;155;866222;-56
2021/11/07 00:42:20;;;;;;;11.99;6.43;;;;;;;;;;339533;153;858730;-56
2021/11/07 00:43:29;;;;;;;11.72;7.11;;;;;;;;;;345351;152;858238;-56
2021/11/07 00:44:36;;;;;;;10.66;6.84;;;;;;;;;;347384;152;865008;-56
2021/11/07 00:45:42;;;;;;;14.13;7.40;;;;;;;;;;346191;153;858099;-55
2021/11/07 00:46:46;;;;;;;11.26;6.33;;;;;;;;;;345579;153;857683;-55
2021/11/07 00:48:00;;;;;;;10.41;6.74;;;;;;;;;;344257;152;866782;-55
2021/11/07 00:49:06;;;;;;;12.87;6.66;;;;;;;;;;342425;155;857193;-56
2021/11/07 00:50:11;;;;;;;8.38;5.18;;;;;;;;;;344716;152;859094;-55
2021/11/07 02:03:59;;;;;;;9.99;5.31;;;;;;;2.27;76.71;100610.47;372986;142;871088;-57
2021/11/07 02:05:02;;;;;;;7.64;4.92;;;;;;;2.13;76.26;100607.39;368451;144;857250;-56
2021/11/07 02:06:05;;;;;;;11.64;5.24;;;;;;;2.12;75.99;100608.20;367385;144;858609;-55
2021/11/07 02:07:07;;;;;;;12.31;5.19;;;;;;;2.16;76.17;100607.50;365943;144;865911;-57
2021/11/07 02:08:09;;;;;;;9.21;5.47;;;;;;;2.23;76.21;100608.61;366483;144;857669;-57
2021/11/07 02:09:10;;;;;;;8.67;4.70;;;;;;;2.31;75.93;100607.20;370041;144;857328;-56
2021/11/07 02:10:14;;;;;;;7.76;4.92;;;;;;;2.43;75.46;100609.31;367752;144;857257;-57
2021/11/07 02:11:16;;;;;;;8.08;4.67;;;;;;;2.58;75.16;100609.86;366978;144;859569;-57
2021/11/07 02:12:18;;;;;;;7.69;5.11;;;;;;;2.73;74.53;100608.69;366333;144;858358;-57
2021/11/07 02:13:20;;;;;;;8.30;4.78;;;;;;;2.73;74.53;100608.69;366636;144;859082;-56
2021/11/07 02:14:22;;;;;;;9.10;5.19;;;;;;;3.05;73.39;100614.02;370786;144;857267;-56
2021/11/07 02:15:24;;;;;;;6.79;4.57;;;;;;;3.23;72.98;100611.22;367855;144;857452;-56
2021/11/07 02:16:27;;;;;;;9.92;4.82;;;;;;;3.40;72.26;100611.74;367359;144;864943;-57
2021/11/07 02:17:28;;;;;;;10.51;4.91;;;;;;;3.58;71.66;100610.58;372552;144;859486;-56
2021/11/07 02:18:30;;;;;;;9.44;4.90;;;;;;;3.76;71.03;100605.17;367122;144;865481;-58
2021/11/07 02:19:32;;;;;;;7.69;4.81;;;;;;;3.94;70.57;100597.19;370114;144;865799;-58
2021/11/07 02:20:39;;;;;;;7.56;4.62;;;;;;;4.10;69.53;100601.05;361667;144;866849;-57
2021/11/07 02:21:43;;;;;;;7.76;5.12;;;;;;;4.23;69.02;100603.13;361780;144;865157;-58
2021/11/07 02:22:46;;;;;;;9.19;5.24;;;;;;;4.41;68.66;100606.19;362240;144;857744;-57
2021/11/07 02:23:47;;;;;;;7.58;5.27;;;;;;;;;;362611;145;865431;-57
2021/11/07 02:24:49;;;;;;;10.36;5.46;;;;;;;;;;363872;145;859011;-56
2021/11/07 02:25:53;;;;;;;10.75;5.90;;;;;;;;;;362693;144;865030;-56
2021/11/07 02:26:56;;;;;;;8.94;5.96;;;;;;;;;;362855;145;866132;-56
2021/11/07 02:27:57;;;;;;;11.30;6.01;;;;;;;;;;365054;144;857330;-56
2021/11/07 02:29:00;;;;;;;8.62;5.93;;;;;;;;;;363640;144;865938;-56
2021/11/07 02:30:02;;;;;;;10.48;6.42;;;;;;;;;;359908;145;859405;-56
2021/11/07 02:31:05;;;;;;;12.04;6.61;;;;;;;;;;366244;144;865943;-56
2021/11/07 02:32:07;;;;;;;10.94;7.22;;;;;;;;;;364816;144;857326;-55
2021/11/07 02:33:08;;;;;;;12.01;6.96;;;;;;;;;;361729;144;857377;-55
2021/11/07 02:34:10;;;;;;;13.89;6.96;;;;;;;;;;362133;147;857448;-56
2021/11/07 02:35:12;;;;;;;11.89;6.98;;;;;;;;;;363807;147;858439;-58
2021/11/07 02:36:16;;;;;;;11.03;7.02;;;;;;;;;;361525;144;859970;-55
2021/11/07 02:37:18;;;;;;;11.24;6.46;;;;;;;;;;363903;145;859212;-55
2021/11/07 02:38:20;;;;;;;11.53;7.09;;;;;;;;;;360914;147;858959;-55
2021/11/07 02:39:22;;;;;;;11.00;7.23;;;;;;;;;;364015;144;857892;-56
2021/11/07 02:40:24;;;;;;;12.99;7.23;;;;;;;;;;361943;144;864964;-56
2021/11/07 02:41:26;;;;;;;11.77;7.43;;;;;;;;;;360877;146;856994;-55
2021/11/07 02:42:27;;;;;;;13.15;7.11;;;;;;;;;;361950;145;859341;-55
2021/11/07 02:43:29;;;;;;;14.61;8.04;;;;;;;;;;363663;144;857620;-56
2021/11/07 02:44:36;;;;;;;13.70;7.54;;;;;;;;;;360982;146;858828;-56
2021/11/07 02:45:38;;;;;;;10.57;7.23;;;;;;;;;;363186;147;857448;-55
2021/11/07 02:46:39;;;;;;;10.67;7.33;;;;;;;;;;362410;144;857859;-56
2021/11/07 02:47:42;;;;;;;12.99;6.96;;;;;;;;;;361606;146;857953;-56
2021/11/07 02:48:44;;;;;;;13.38;7.43;;;;;;;;;;360977;145;857423;-56
2021/11/07 02:49:45;;;;;;;10.86;7.29;;;;;;;;;;368815;145;865072;-56
2021/11/07 02:50:47;;;;;;;12.28;6.79;;;;;;;;;;360546;146;857896;-56
2021/11/07 02:51:48;;;;;;;13.54;7.54;;;;;;;;;;361888;147;867142;-55
2021/11/07 02:52:50;;;;;;;12.87;6.66;;;;;;;;;;362588;147;859892;-56
2021/11/07 02:53:52;;;;;;;12.07;7.67;;;;;;;;;;364306;144;859085;-55
2021/11/07 02:54:53;;;;;;;11.59;7.16;;;;;;;;;;362690;146;857401;-55
2021/11/07 02:55:55;;;;;;;14.11;7.36;;;;;;;;;;361612;147;864948;-55
2021/11/07 02:56:58;;;;;;;11.51;7.19;;;;;;;;;;360737;145;865184;-55
2021/11/07 02:58:00;;;;;;;12.69;8.09;;;;;;;;;;360890;146;857408;-55
2021/11/07 02:59:02;;;;;;;15.61;7.73;;;;;;;;;;361836;145;857337;-56
2021/11/07 03:00:06;;;;;;;12.85;7.00;;;;;;;;;;360355;147;857326;-56
2021/11/07 03:01:07;;;;;;;10.43;7.09;;;;;;;;;;360633;145;858999;-56
2021/11/07 03:02:10;;;;;;;10.57;6.37;;;;;;;;;;361768;145;865093;-56
2021/11/07 03:03:11;;;;;;;12.44;7.32;;;;;;;;;;361374;147;858417;-56
2021/11/07 03:04:13;;;;;;;12.82;7.41;;;;;;;;;;358866;147;858806;-56
2021/11/07 03:05:15;;;;;;;10.59;6.55;;;;;;;;;;357110;147;865756;-56
2021/11/07 03:06:17;;;;;;;13.35;7.20;;;;;;;;;;356265;150;857339;-56
2021/11/07 03:07:20;;;;;;;11.18;7.89;;;;;;;;;;356781;145;865775;-55
2021/11/07 03:08:21;;;;;;;14.06;7.86;;;;;;;;;;356680;148;861020;-55
2021/11/07 03:09:24;;;;;;;12.98;7.56;;;;;;;;;;358104;148;857360;-56
2021/11/07 03:10:29;;;;;;;14.08;7.94;;;;;;;;;;359352;148;862771;-56
2021/11/07 03:11:30;;;;;;;12.43;7.66;;;;;;;;;;357210;147;865556;-56
2021/11/07 03:12:32;;;;;;;14.17;8.43;;;;;;;;;;356672;148;865039;-56
2021/11/07 03:13:33;;;;;;;14.12;7.69;;;;;;;;;;358237;148;857408;-56
2021/11/07 03:14:39;;;;;;;12.36;7.99;;;;;;;;;;356184;147;861803;-56
2021/11/07 03:15:42;;;;;;;12.64;6.87;;;;;;;;;;356630;148;859327;-55
2021/11/07 03:16:44;;;;;;;12.58;7.83;;;;;;;;;;356979;148;857686;-56
2021/11/07 03:17:45;;;;;;;9.48;5.75;;;;;;;;;;355478;145;859129;-55
2021/11/07 03:18:47;;;;;;;12.97;7.12;;;;;;;;;;356190;145;857408;-55
2021/11/07 03:19:49;;;;;;;11.69;5.77;;;;;;;;;;355725;148;857639;-55
2021/11/07 03:20:51;;;;;;;13.91;7.89;;;;;;;;;;355831;148;863426;-55
2021/11/07 03:21:54;;;;;;;15.23;8.04;;;;;;;;;;357233;145;866848;-55
2021/11/07 03:22:56;;;;;;;12.01;7.97;;;;;;;;;;355408;148;864997;-55
2021/11/07 03:23:58;;;;;;;13.23;7.99;;;;;;;;;;343809;154;867397;-55
2021/11/07 03:25:02;;;;;;;12.95;7.21;;;;;;;;;;347951;151;865099;-55
2021/11/07 03:26:10;;;;;;;12.64;7.51;;;;;;;;;;348478;152;857945;-56
2021/11/07 03:27:17;;;;;;;12.76;7.03;;;;;;;;;;346641;152;865071;-58
2021/11/07 03:28:14;;;;;;;10.04;6.42;;;;;;;;;;346335;152;859395;-57
2021/11/07 03:29:16;;;;;;;12.57;6.59;;;;;;;;;;349190;149;857824;-57
2021/11/07 03:30:30;;;;;;;13.47;8.17;;;;;;;;;;348270;151;857346;-56
2021/11/07 03:32:35;;;;;;;12.88;6.64;;;;;;;;;;349243;150;858959;-56
2021/11/07 03:33:47;;;;;;;11.55;6.40;;;;;;;;;;347966;153;857258;-56
2021/11/07 03:34:50;;;;;;;16.51;7.57;;;;;;;;;;346681;153;857594;-56
2021/11/07 03:35:50;;;;;;;11.58;7.12;;;;;;;;;;346522;151;858321;-57
2021/11/07 03:36:54;;;;;;;14.69;7.74;;;;;;;;;;346271;152;857896;-56
2021/11/07 03:37:56;;;;;;;14.76;7.64;;;;;;;;;;347754;149;867634;-55
2021/11/07 03:38:57;;;;;;;12.37;7.40;;;;;;;;;;346736;152;866542;-56
2021/11/07 03:39:59;;;;;;;16.46;7.73;;;;;;;;;;346213;152;857396;-56
2021/11/07 03:41:02;;;;;;;13.29;8.01;;;;;;;;;;346821;152;862790;-55
2021/11/07 03:42:10;;;;;;;10.32;6.53;;;;;;;;;;347324;152;859620;-56
2021/11/07 03:43:12;;;;;;;12.27;7.89;;;;;;;;;;349887;149;865260;-56
2021/11/07 03:44:14;;;;;;;13.74;7.73;;;;;;;;;;348736;151;857770;-55
2021/11/07 03:45:16;;;;;;;10.99;7.17;;;;;;;;;;348245;152;865076;-56
2021/11/07 03:46:18;;;;;;;13.57;7.27;;;;;;;;;;345782;152;857245;-55
2021/11/07 03:47:20;;;;;;;12.31;7.32;;;;;;;;;;346361;151;865627;-56
2021/11/07 03:48:22;;;;;;;12.55;7.79;;;;;;;;;;348320;152;860968;-55
2021/11/07 03:49:24;;;;;;;12.27;7.44;;;;;;;;;;347708;152;857387;-55
2021/11/07 03:50:27;;;;;;;12.12;7.42;;;;;;;;;;345427;152;857311;-57
2021/11/07 03:51:30;;;;;;;13.71;7.20;;;;;;;;;;345190;153;857315;-55
2021/11/07 03:52:32;;;;;;;12.99;7.64;;;;;;;;;;345538;153;865030;-55
2021/11/07 03:53:34;;;;;;;11.98;6.99;;;;;;;;;;347812;154;858696;-55
2021/11/07 03:54:36;;;;;;;14.09;7.16;;;;;;;;;;348747;151;858308;-56
2021/11/07 03:55:38;;;;;;;13.66;7.32;;;;;;;;;;350831;152;866591;-55
2021/11/07 03:56:39;;;;;;;13.74;7.28;;;;;;;;;;347677;153;857515;-55
2021/11/07 03:57:41;;;;;;;12.22;7.50;;;;;;;;;;344601;151;865914;-56
2021/11/07 03:58:43;;;;;;;12.40;7.84;;;;;;;;;;348439;151;866222;-55
2021/11/07 03:59:45;;;;;;;12.50;7.14;;;;;;;;;;348318;152;860965;-55
2021/11/07 04:00:46;;;;;;;11.71;7.23;;;;;;;;;;344738;151;857625;-55
2021/11/07 04:01:48;;;;;;;10.74;6.66;;;;;;;;;;346045;153;857339;-57
2021/11/07 04:02:50;;;;;;;13.73;7.59;;;;;;;;;;347816;153;863410;-55
2021/11/07 04:03:52;;;;;;;11.69;7.62;;;;;;;;;;345040;154;857395;-56
2021/11/07 04:50:10;;;;;;;20.66;6.11;;;;;;;1.06;77.09;100581.14;369648;142;881062;-61
2021/11/07 04:51:12;;;;;;;9.42;6.29;;;;;;;0.94;77.21;100580.64;362358;144;857403;-60
2021/11/07 04:52:14;;;;;;;13.03;6.51;;;;;;;0.91;77.38;100583.92;362965;145;857390;-61
2021/11/07 04:53:20;;;;;;;8.89;5.41;;;;;;;0.91;77.39;100583.06;361725;145;857721;-59
2021/11/07 04:54:20;;;;;;;8.98;5.35;;;;;;;0.96;77.38;100586.67;361693;145;857309;-60
2021/11/07 04:55:22;;;;;;;13.59;6.23;;;;;;;1.03;77.39;100588.67;363193;144;861508;-61
2021/11/07 04:56:25;;;;;;;10.61;5.57;;;;;;;1.12;77.16;100589.05;362830;145;857388;-60
2021/11/07 04:57:27;;;;;;;11.82;5.77;;;;;;;1.26;76.79;100592.17;363821;146;857257;-60
2021/11/07 04:58:28;;;;;;;8.87;5.52;;;;;;;1.26;76.79;100592.17;362601;145;860953;-60
2021/11/07 04:59:30;;;;;;;8.39;5.71;;;;;;;1.58;76.21;100596.79;364186;147;857929;-58
2021/11/07 05:00:33;;;;;;;10.24;5.76;;;;;;;1.73;75.80;100581.20;361188;144;865067;-58
2021/11/07 05:01:36;;;;;;;10.61;5.81;;;;;;;1.94;75.27;100593.05;357995;147;866266;-59
2021/11/07 05:02:38;;;;;;;13.04;6.57;;;;;;;2.11;74.70;100586.88;358455;148;859437;-57
2021/11/07 05:03:40;;;;;;;10.13;5.48;;;;;;;2.29;74.12;100586.69;359803;148;857417;-56
2021/11/07 05:04:42;;;;;;;10.97;5.77;;;;;;;2.45;73.57;100585.56;360400;147;859309;-58
2021/11/07 05:05:44;;;;;;;12.67;4.99;;;;;;;2.63;72.98;100592.14;359551;147;859149;-59
2021/11/07 05:06:50;;;;;;;11.27;5.74;;;;;;;2.80;72.60;151230.28;358333;150;859533;-58
2021/11/07 05:07:51;;;;;;;8.61;4.84;;;;;;;;;;358402;147;865103;-57
2021/11/07 05:08:53;;;;;;;11.08;6.46;;;;;;;;;;358202;147;866796;-56
2021/11/07 05:09:55;;;;;;;12.26;5.92;;;;;;;;;;358464;147;858936;-56
2021/11/07 05:10:59;;;;;;;7.47;4.71;;;;;;;;;;358442;147;859170;-58
2021/11/07 05:12:01;;;;;;;11.32;6.16;;;;;;;;;;356829;147;857277;-58
2021/11/07 05:13:03;;;;;;;12.56;6.16;;;;;;;;;;358902;147;857385;-57
2021/11/07 05:14:05;;;;;;;10.75;5.86;;;;;;;;;;359136;147;857751;-56
2021/11/07 05:15:07;;;;;;;12.59;6.60;;;;;;;;;;358807;148;866725;-56
2021/11/07 05:16:09;;;;;;;14.37;7.69;;;;;;;;;;358560;147;865987;-57
2021/11/07 05:17:10;;;;;;;11.44;7.22;;;;;;;;;;359508;148;858687;-56
2021/11/07 05:18:13;;;;;;;11.31;7.44;;;;;;;;;;359196;148;865025;-56
2021/11/07 05:19:14;;;;;;;12.02;6.85;;;;;;;;;;357950;148;859517;-60
2021/11/07 05:20:17;;;;;;;12.23;7.69;;;;;;;;;;357539;148;857405;-55
2021/11/07 05:21:21;;;;;;;11.41;7.19;;;;;;;;;;359072;149;857902;-58
2021/11/07 05:22:23;;;;;;;12.29;8.01;;;;;;;;;;358405;148;865705;-59
2021/11/07 05:23:24;;;;;;;17.11;7.43;;;;;;;;;;358755;147;857906;-58
2021/11/07 05:24:26;;;;;;;11.81;7.72;;;;;;;;;;359054;147;857480;-57
2021/11/07 05:25:29;;;;;;;13.95;8.27;;;;;;;;;;358199;148;864942;-57
2021/11/07 05:26:31;;;;;;;11.87;7.81;;;;;;;;;;358261;147;857369;-58
2021/11/07 05:27:33;;;;;;;12.61;7.60;;;;;;;;;;357872;148;857805;-58
2021/11/07 05:28:35;;;;;;;12.91;8.24;;;;;;;;;;359314;147;865018;-58
2021/11/07 05:29:36;;;;;;;16.23;8.07;;;;;;;;;;352879;150;857535;-57
2021/11/07 05:30:38;;;;;;;12.25;7.91;;;;;;;;;;350464;150;858116;-58
2021/11/07 05:31:40;;;;;;;12.16;8.12;;;;;;;;;;360228;148;857586;-57
2021/11/07 05:32:42;;;;;;;13.08;8.74;;;;;;;;;;358293;148;865781;-59
2021/11/07 05:33:43;;;;;;;15.14;8.30;;;;;;;;;;357905;147;859522;-57
2021/11/07 05:34:46;;;;;;;13.26;7.42;;;;;;;;;;357534;147;866850;-58
2021/11/07 05:35:48;;;;;;;12.59;8.28;;;;;;;;;;359108;147;857590;-58
2021/11/07 05:36:51;;;;;;;12.99;7.73;;;;;;;;;;358436;148;859170;-59
2021/11/07 05:37:52;;;;;;;18.45;8.47;;;;;;;;;;359447;147;866438;-58
2021/11/07 05:38:54;;;;;;;14.25;8.65;;;;;;;;;;358207;149;858673;-58
2021/11/07 05:39:56;;;;;;;13.37;8.43;;;;;;;;;;358580;147;858222;-58
2021/11/07 05:40:57;;;;;;;16.56;9.07;;;;;;;;;;357545;148;865965;-60
2021/11/07 05:41:59;;;;;;;15.71;8.48;;;;;;;;;;359249;148;859294;-58
2021/11/07 05:43:00;;;;;;;16.64;8.76;;;;;;;;;;358491;147;865071;-58
2021/11/07 05:44:02;;;;;;;15.38;8.98;;;;;;;;;;359688;147;857873;-58
2021/11/07 05:45:04;;;;;;;15.17;9.33;;;;;;;;;;358565;148;866053;-59
2021/11/07 05:46:06;;;;;;;13.99;9.17;;;;;;;;;;357895;147;857729;-59
2021/11/07 05:47:11;;;;;;;14.69;9.20;;;;;;;;;;357283;148;865830;-59
2021/11/07 05:48:12;;;;;;;14.91;8.85;;;;;;;;;;360192;147;861096;-60
2021/11/07 05:49:14;;;;;;;14.58;8.16;;;;;;;;;;356857;148;866483;-58
2021/11/07 05:50:16;;;;;;;17.75;9.89;;;;;;;;;;358127;148;865073;-58
2021/11/07 05:51:18;;;;;;;16.61;9.50;;;;;;;;;;358710;147;857833;-58
2021/11/07 05:52:20;;;;;;;18.61;9.74;;;;;;;;;;358599;147;858886;-59
2021/11/07 05:53:21;;;;;;;20.36;9.15;;;;;;;;;;357453;147;857508;-59
2021/11/07 05:54:23;;;;;;;15.34;9.02;;;;;;;;;;358569;147;865814;-59
2021/11/07 05:55:24;;;;;;;16.66;8.46;;;;;;;;;;358567;147;858970;-58
2021/11/07 05:56:27;;;;;;;16.13;9.13;;;;;;;;;;359780;149;859553;-59
2021/11/07 05:57:28;;;;;;;17.58;8.79;;;;;;;;;;359186;148;857204;-58
2021/11/07 05:58:30;;;;;;;14.74;9.26;;;;;;;;;;358593;147;857174;-58
2021/11/07 05:59:31;;;;;;;16.14;8.96;;;;;;;;;;360360;148;865175;-58
2021/11/07 06:00:34;;;;;;;15.19;9.06;;;;;;;;;;354928;150;857889;-58
2021/11/07 06:01:36;;;;;;;17.70;8.91;;;;;;;;;;359651;147;866006;-55
2021/11/07 06:02:38;;;;;;;16.97;9.59;;;;;;;;;;359350;147;859040;-54
2021/11/07 06:03:39;;;;;;;15.65;9.32;;;;;;;;;;357391;147;860954;-55
2021/11/07 06:04:41;;;;;;;16.32;9.54;;;;;;;;;;357074;148;857433;-55
2021/11/07 06:05:42;;;;;;;18.36;9.76;;;;;;;;;;358328;148;866555;-55
2021/11/07 06:06:44;;;;;;;15.20;8.51;;;;;;;;;;356680;148;858361;-56
2021/11/07 06:07:47;;;;;;;14.12;8.69;;;;;;;;;;358886;148;859568;-55
2021/11/07 06:08:49;;;;;;;16.29;9.07;;;;;;;;;;358432;147;866284;-61
2021/11/07 06:09:51;;;;;;;18.62;9.59;;;;;;;;;;356746;147;866839;-56
2021/11/07 06:10:53;;;;;;;19.03;10.18;;;;;;;;;;358346;148;865681;-55
2021/11/07 06:11:54;;;;;;;16.81;10.24;;;;;;;;;;357416;148;857338;-56
2021/11/07 06:12:56;;;;;;;17.00;10.07;;;;;;;;;;358212;148;865047;-56
2021/11/07 06:13:58;;;;;;;18.44;9.11;;;;;;;;;;359157;148;858219;-55
2021/11/07 06:15:00;;;;;;;14.79;9.01;;;;;;;;;;356970;148;860468;-55
2021/11/07 06:16:02;;;;;;;18.77;10.17;;;;;;;;;;356278;147;865086;-55
2021/11/07 06:17:05;;;;;;;16.27;10.46;;;;;;;;;;356415;148;858994;-55
2021/11/07 06:18:07;;;;;;;15.81;9.47;;;;;;;;;;357419;150;867969;-55
2021/11/07 06:19:09;;;;;;;16.83;10.20;;;;;;;;;;358528;148;858478;-55
2021/11/07 06:20:11;;;;;;;22.34;10.39;;;;;;;;;;358467;147;866214;-55
2021/11/07 06:21:13;;;;;;;19.63;10.98;;;;;;;;;;356000;149;865793;-55
2021/11/07 06:22:16;;;;;;;19.49;11.31;;;;;;;;;;355826;149;857372;-56
2021/11/07 06:23:17;;;;;;;15.96;10.44;;;;;;;;;;358238;148;860397;-56
2021/11/07 06:24:25;;;;;;;19.73;11.29;;;;;;;;;;351459;151;860204;-56
2021/11/07 06:25:23;;;;;;;17.34;10.35;;;;;;;;;;349472;151;867285;-60
2021/11/07 06:26:25;;;;;;;15.02;10.13;;;;;;;;;;359066;148;865047;-54
2021/11/07 06:27:29;;;;;;;17.03;10.58;;;;;;;;;;358128;147;857813;-54
2021/11/07 06:28:30;;;;;;;19.01;11.12;;;;;;;;;;357543;149;857327;-57
2021/11/07 06:29:32;;;;;;;20.00;11.41;;;;;;;;;;357410;148;857427;-57
2021/11/07 06:30:34;;;;;;;18.69;11.79;;;;;;;;;;351974;150;864878;-60
2021/11/07 06:31:36;;;;;;;18.49;10.81;;;;;;;;;;350655;150;857339;-56
2021/11/07 06:32:37;;;;;;;17.26;9.99;;;;;;;;;;358039;150;857308;-56
2021/11/07 06:33:39;;;;;;;20.28;10.59;;;;;;;;;;358701;149;858466;-56
2021/11/07 06:34:41;;;;;;;16.09;9.46;;;;;;;;;;359535;147;865409;-56
2021/11/07 06:35:43;;;;;;;15.51;9.92;;;;;;;;;;359513;147;857918;-56
2021/11/07 06:36:45;;;;;;;16.69;10.03;;;;;;;;;;358480;147;865774;-55
2021/11/07 06:37:46;;;;;;;16.84;9.65;;;;;;;;;;358379;147;858711;-59
2021/11/07 06:38:48;;;;;;;17.00;10.54;;;;;;;;;;360162;147;866577;-56
2021/11/07 06:39:50;;;;;;;16.87;10.30;;;;;;;;;;358865;149;868600;-56
2021/11/07 06:40:52;;;;;;;17.05;9.60;;;;;;;;;;359393;147;858892;-54
2021/11/07 06:41:53;;;;;;;15.06;8.07;;;;;;;;;;357099;148;860210;-55
2021/11/07 06:42:55;;;;;;;15.34;9.80;;;;;;;;;;359902;149;866777;-56
2021/11/07 06:43:57;;;;;;;18.22;9.51;;;;;;;;;;359130;150;866306;-55
2021/11/07 06:44:59;;;;;;;13.38;8.71;;;;;;;;;;350948;151;857749;-55
2021/11/07 06:46:01;;;;;;;18.91;9.99;;;;;;;;;;356701;147;859397;-55
2021/11/07 06:47:03;;;;;;;17.17;9.98;;;;;;;;;;357026;147;857830;-54
2021/11/07 06:48:05;;;;;;;15.21;9.55;;;;;;;;;;358871;148;865525;-55
2021/11/07 06:49:08;;;;;;;17.30;9.37;;;;;;;;;;358404;148;857357;-57
2021/11/07 06:50:13;;;;;;;17.44;8.98;;;;;;;;;;360147;149;858690;-56
2021/11/07 06:51:16;;;;;;;15.57;9.49;;;;;;;;;;354352;150;857360;-55
2021/11/07 06:52:18;;;;;;;18.35;9.76;;;;;;;;;;357783;148;857380;-55
2021/11/07 06:53:20;;;;;;;12.11;6.84;;;;;;;;;;359599;147;857209;-58
2021/11/07 06:54:22;;;;;;;16.00;10.40;;;;;;;;;;358949;148;857865;-57
2021/11/07 06:55:24;;;;;;;16.81;9.68;;;;;;;;;;358659;148;857259;-56
2021/11/07 06:56:27;;;;;;;17.27;9.76;;;;;;;;;;359777;147;857293;-57
2021/11/07 06:57:29;;;;;;;16.49;10.09;;;;;;;;;;357373;148;858355;-57
2021/11/07 06:58:31;;;;;;;15.96;9.36;;;;;;;;;;358983;148;857793;-56
2021/11/07 06:59:32;;;;;;;17.21;8.39;;;;;;;;;;359689;147;858963;-56
2021/11/07 07:00:35;;;;;;;19.19;10.01;;;;;;;;;;359215;147;858236;-57
2021/11/07 07:01:37;;;;;;;16.86;10.16;;;;;;;;;;356563;150;865081;-56
2021/11/07 07:02:41;;;;;;;15.75;8.75;;;;;;;;;;355873;150;865209;-55
2021/11/07 07:03:42;;;;;;;15.49;9.66;;;;;;;;;;359320;147;857303;-56
2021/11/07 07:04:44;;;;;;;15.77;9.58;;;;;;;;;;360452;148;857430;-57
2021/11/07 07:05:45;;;;;;;15.81;9.54;;;;;;;;;;359355;149;865966;-57
2021/11/07 07:06:48;;;;;;;19.20;10.26;;;;;;;;;;360121;147;857894;-57
2021/11/07 07:07:52;;;;;;;16.19;9.65;;;;;;;;;;359264;147;857296;-57
2021/11/07 07:09:00;;;;;;;16.11;9.71;;;;;;;;;;361996;147;865026;-58
2021/11/07 07:10:02;;;;;;;11.97;7.04;;;;;;;;;;358748;147;857746;-57
2021/11/07 07:11:09;;;;;;;17.53;10.94;;;;;;;;;;356856;147;857290;-58
2021/11/07 07:12:09;;;;;;;17.27;10.56;;;;;;;;;;356447;148;859420;-57
2021/11/07 07:13:20;;;;;;;17.32;9.19;;;;;;;;;;351791;148;857603;-57
2021/11/07 07:14:31;;;;;;;19.04;10.44;;;;;;;;;;356357;148;857861;-57
2021/11/07 07:15:40;;;;;;;19.28;9.87;;;;;;;;;;353827;150;857916;-58
2021/11/07 07:17:45;;;;;;;15.75;10.07;;;;;;;;;;350823;150;858346;-57
2021/11/07 07:20:01;;;;;;;17.71;10.03;;;;;;;;;;358790;149;859510;-57
2021/11/07 07:21:16;;;;;;;18.26;10.57;;;;;;;;;;357225;148;857815;-61
2021/11/07 07:24:10;;;;;;;16.78;10.00;;;;;;;;;;349364;152;856128;-58
2021/11/07 07:25:17;;;;;;;16.90;10.18;;;;;;;;;;356873;147;859202;-56
2021/11/07 07:28:24;;;;;;;18.15;10.01;;;;;;;;;;359232;147;857514;-57
2021/11/07 07:33:01;;;;;;;14.27;8.83;;;;;;;;;;358032;147;856770;-58
2021/11/07 07:35:04;;;;;;;15.84;9.39;;;;;;;;;;359642;147;856219;-58
2021/11/07 07:36:05;;;;;;;16.19;9.99;;;;;;;;;;358728;147;863886;-58
2021/11/07 07:37:06;;;;;;;15.91;9.48;;;;;;;;;;359775;147;856779;-60
2021/11/07 07:38:08;;;;;;;18.88;10.39;;;;;;;;;;357845;148;863911;-59
2021/11/07 07:39:11;;;;;;;16.06;9.51;;;;;;;;;;358895;147;863998;-59
2021/11/07 07:42:08;;;;;;;18.29;9.13;;;;;;;6.89;61.58;100513.19;372860;141;878955;-58
2021/11/07 07:43:10;;;;;;;17.87;8.93;;;;;;;6.90;61.01;100515.80;368968;144;861260;-57
2021/11/07 07:44:12;;;;;;;18.03;9.93;;;;;;;6.97;61.04;100514.17;370099;144;858390;-60
2021/11/07 07:45:14;;;;;;;15.06;9.09;;;;;;;7.06;60.88;100514.31;367463;144;857302;-59
2021/11/07 07:46:19;;;;;;;16.76;9.56;;;;;;;7.13;60.06;100512.72;365979;144;857335;-57
2021/11/07 07:47:20;;;;;;;14.09;8.93;;;;;;;7.04;60.53;100513.42;366000;144;859309;-59
2021/11/07 07:48:22;;;;;;;16.92;9.03;;;;;;;7.22;61.06;100447.58;367499;144;859162;-59
2021/11/07 07:49:24;;;;;;;17.89;9.24;;;;;;;7.22;61.06;100447.58;366304;144;857869;-57
2021/11/07 07:50:28;;;;;;;17.92;10.12;;;;;;;7.23;59.88;100518.86;358709;147;857698;-59
2021/11/07 07:51:31;;;;;;;15.11;9.31;;;;;;;7.30;60.34;100516.41;362424;147;858596;-59
2021/11/07 07:52:34;;;;;;;20.17;10.16;;;;;;;7.39;60.44;100517.38;366873;144;857507;-59
2021/11/07 07:53:36;;;;;;;13.92;7.65;;;;;;;7.48;60.28;100516.66;365863;144;857451;-58
2021/11/07 07:54:38;;;;;;;18.66;10.32;;;;;;;7.54;59.77;100514.17;368656;144;857243;-60
2021/11/07 07:55:40;;;;;;;16.14;8.44;;;;;;;7.58;59.66;100516.79;368511;144;857440;-59
2021/11/07 07:56:42;;;;;;;13.95;9.11;;;;;;;7.67;59.95;100517.75;366171;144;859057;-59
2021/11/07 07:57:45;;;;;;;15.13;9.58;;;;;;;;;;367124;144;857957;-60
2021/11/07 07:58:47;;;;;;;16.40;8.88;;;;;;;;;;366627;144;857343;-57
2021/11/07 07:59:48;;;;;;;17.45;9.65;;;;;;;;;;368828;144;857206;-58
2021/11/07 08:00:52;;;;;;;13.60;8.82;;;;;;;;;;362760;144;866697;-60
2021/11/07 08:01:54;;;;;;;13.20;7.68;;;;;;;;;;360060;144;866058;-59
2021/11/07 08:02:55;;;;;;;14.92;9.84;;;;;;;;;;361337;144;866275;-58
2021/11/07 08:03:57;;;;;;;16.19;9.09;;;;;;;;;;364510;144;865881;-59
2021/11/07 08:04:59;;;;;;;13.15;7.85;;;;;;;;;;360464;144;858666;-58
2021/11/07 08:06:01;;;;;;;11.40;7.30;;;;;;;;;;359033;147;865718;-60
2021/11/07 08:07:03;;;;;;;16.37;9.19;;;;;;;;;;361881;145;865754;-59
2021/11/07 08:08:04;;;;;;;10.08;6.19;;;;;;;;;;360189;147;857225;-59
2021/11/07 08:09:06;;;;;;;14.54;8.69;;;;;;;;;;359539;144;857535;-60
2021/11/07 08:10:08;;;;;;;15.81;8.44;;;;;;;;;;362416;146;857158;-62
2021/11/07 08:11:09;;;;;;;14.49;8.48;;;;;;;;;;362952;144;863950;-59
2021/11/07 08:12:11;;;;;;;16.94;9.74;;;;;;;;;;360322;144;864451;-63
2021/11/07 08:13:12;;;;;;;14.40;8.61;;;;;;;;;;357057;147;863782;-60
2021/11/07 08:14:14;;;;;;;17.73;9.31;;;;;;;;;;355835;147;856238;-59
2021/11/07 08:15:16;;;;;;;14.86;8.54;;;;;;;;;;361564;147;856282;-55
2021/11/07 08:16:17;;;;;;;18.05;8.68;;;;;;;;;;360607;145;864487;-57
2021/11/07 08:17:19;;;;;;;14.79;9.11;;;;;;;;;;360571;146;864593;-57